Time;durP1;ratioP1;P1;durP2;ratioP2;P2;SDS_P1;SDS_P2;PMS_P1;PMS_P2;Temp;Humidity;BMP_temperature;BMP_pressure;BME280_temperature;BME280_humidity;BME280_pressure;Samples;Min_cycle;Max_cycle;Signal;HPM_P1;HPM_P2
2022/08/02 00:00:46;;;;;;;1768.45;999.90;;;14.20;99.90;;;;;;4884324;29;20059;-80
2022/08/02 00:03:12;;;;;;;1999.90;999.90;;;14.20;99.90;;;;;;4916917;29;20056;-80
2022/08/02 00:05:38;;;;;;;1941.97;999.90;;;14.20;99.90;;;;;;4915389;29;20063;-80
2022/08/02 00:08:04;;;;;;;1879.70;999.90;;;14.20;99.90;;;;;;4916628;29;20099;-80
2022/08/02 00:10:29;;;;;;;1999.90;999.90;;;14.30;99.90;;;;;;4916639;29;20135;-80
2022/08/02 00:12:55;;;;;;;898.55;811.47;;;14.30;99.90;;;;;;4900098;29;20059;-81
2022/08/02 00:15:21;;;;;;;1685.88;999.90;;;14.30;99.90;;;;;;4900266;29;20109;-80
2022/08/02 00:17:47;;;;;;;1999.90;999.90;;;14.40;99.90;;;;;;4918351;29;20054;-81
2022/08/02 00:20:13;;;;;;;1274.40;968.90;;;14.40;99.90;;;;;;4918901;29;20048;-80
2022/08/02 00:22:38;;;;;;;1995.05;999.90;;;14.40;99.90;;;;;;4885391;29;20048;-80
2022/08/02 00:25:05;;;;;;;1999.90;999.90;;;14.40;99.90;;;;;;4917583;29;20370;-81
2022/08/02 00:27:31;;;;;;;1559.90;998.75;;;14.40;99.90;;;;;;4916350;29;20052;-82
2022/08/02 00:29:56;;;;;;;1999.90;999.90;;;14.40;99.90;;;;;;4916561;29;20151;-81
2022/08/02 00:32:22;;;;;;;1212.80;958.42;;;14.40;99.90;;;;;;4900180;29;20051;-81
2022/08/02 00:34:49;;;;;;;920.00;838.75;;;14.30;99.90;;;;;;4900028;29;20115;-81
2022/08/02 00:37:15;;;;;;;1999.90;999.90;;;14.40;99.90;;;;;;4888811;29;20056;-81
2022/08/02 00:39:41;;;;;;;1380.28;982.20;;;14.30;99.90;;;;;;4902094;29;20052;-81
2022/08/02 00:42:08;;;;;;;1999.90;999.90;;;14.30;99.90;;;;;;4917128;29;20131;-81
2022/08/02 00:44:33;;;;;;;1040.60;913.17;;;14.30;99.90;;;;;;4919855;29;20048;-81
2022/08/02 00:46:59;;;;;;;1702.40;999.22;;;14.30;99.90;;;;;;4917873;29;20185;-82
2022/08/02 00:49:25;;;;;;;1999.90;999.90;;;14.20;99.90;;;;;;4917809;29;20052;-81
2022/08/02 00:51:51;;;;;;;1999.90;999.90;;;14.10;99.90;;;;;;4917415;29;20139;-81
2022/08/02 00:54:17;;;;;;;1999.90;999.90;;;14.10;99.90;;;;;;4900607;29;20190;-80
2022/08/02 00:56:42;;;;;;;1999.90;999.90;;;14.10;99.90;;;;;;4915707;29;20055;-81
2022/08/02 00:59:08;;;;;;;1999.90;999.90;;;14.10;99.90;;;;;;4916441;29;20477;-81
2022/08/02 01:01:40;;;;;;;1999.90;999.90;;;14.20;99.90;;;;;;4900079;29;20087;-85
2022/08/02 01:04:09;;;;;;;1999.90;999.90;;;14.10;99.90;;;;;;4899911;29;20044;-81
2022/08/02 01:06:36;;;;;;;1876.45;999.90;;;14.10;99.90;;;;;;4914916;29;20052;-86
2022/08/02 01:09:03;;;;;;;1999.90;999.90;;;14.00;99.90;;;;;;4915952;29;20051;-81
2022/08/02 01:11:29;;;;;;;1224.20;967.90;;;14.00;99.90;;;;;;4916151;29;20063;-82
2022/08/02 01:14:01;;;;;;;1460.57;974.78;;;14.00;99.90;;;;;;4899094;29;20056;-81
2022/08/02 01:16:30;;;;;;;1777.38;986.47;;;13.90;99.90;;;;;;4916175;29;20051;-82
2022/08/02 01:19:09;;;;;;;1999.90;999.90;;;13.90;99.90;;;;;;4915815;29;20054;-81
2022/08/02 01:21:53;;;;;;;1999.90;999.90;;;13.80;99.90;;;;;;4916209;29;20115;-82
2022/08/02 01:24:45;;;;;;;1999.90;999.90;;;13.80;99.90;;;;;;4884127;29;20056;-81
2022/08/02 01:27:32;;;;;;;1999.90;999.90;;;13.80;99.90;;;;;;4916382;29;20127;-82
2022/08/02 01:30:00;;;;;;;1999.90;999.90;;;13.80;1.00;;;;;;4916070;29;20087;-81
2022/08/02 01:32:35;;;;;;;1999.90;999.90;;;13.80;1.00;;;;;;4916420;29;20120;-81
2022/08/02 01:35:06;;;;;;;1999.90;999.90;;;13.80;99.90;;;;;;4915768;29;20048;-80
2022/08/02 01:37:47;;;;;;;1999.90;999.90;;;13.80;99.90;;;;;;4915912;29;20496;-81
2022/08/02 01:40:21;;;;;;;1999.90;999.90;;;13.80;99.90;;;;;;4885339;29;20056;-80
2022/08/02 01:42:51;;;;;;;1999.90;999.90;;;13.80;1.00;;;;;;4919114;29;20108;-81
2022/08/02 01:45:19;;;;;;;1951.95;999.90;;;13.80;1.00;;;;;;4902625;29;20397;-81
2022/08/02 01:47:46;;;;;;;1845.35;999.90;;;14.50;1.00;;;;;;4918942;29;20052;-82
2022/08/02 01:50:16;;;;;;;1918.28;999.90;;;13.70;99.90;;;;;;4919294;29;20603;-80
2022/08/02 01:52:48;;;;;;;1999.90;999.90;;;13.70;1.00;;;;;;4918434;29;20490;-81
2022/08/02 01:55:34;;;;;;;1999.90;999.90;;;13.70;1.00;;;;;;4902303;29;20131;-81
2022/08/02 01:58:03;;;;;;;1999.90;999.90;;;13.70;99.90;;;;;;4918782;29;20052;-81
2022/08/02 02:00:32;;;;;;;1999.90;999.90;;;13.60;1.00;;;;;;4919045;29;20048;-81
2022/08/02 02:02:59;;;;;;;1892.65;999.90;;;13.60;68.00;;;;;;4901930;29;20071;-81
2022/08/02 02:05:29;;;;;;;1999.90;999.90;;;13.60;21.60;;;;;;4919033;29;20420;-81
2022/08/02 02:07:57;;;;;;;1957.55;999.90;;;13.60;99.90;;;;;;4901736;29;20056;-81
2022/08/02 02:10:37;;;;;;;1999.90;999.90;;;13.60;68.30;;;;;;4902132;29;20056;-81
2022/08/02 02:13:06;;;;;;;1999.90;999.90;;;13.60;1.00;;;;;;4918271;29;20455;-82
2022/08/02 02:15:34;;;;;;;1999.90;999.90;;;13.50;1.00;;;;;;4902026;29;20051;-82
2022/08/02 02:18:01;;;;;;;1935.40;999.90;;;13.60;1.00;;;;;;4918531;29;20467;-82
2022/08/02 02:20:28;;;;;;;1999.90;999.90;;;13.60;23.30;;;;;;4918842;29;20152;-81
2022/08/02 02:22:54;;;;;;;1999.90;999.90;;;13.60;99.90;;;;;;4917951;29;20134;-81
2022/08/02 02:25:21;;;;;;;1999.90;999.90;;;13.70;99.90;;;;;;4918604;29;20048;-81
2022/08/02 02:28:02;;;;;;;1999.90;999.90;;;13.70;99.90;;;;;;4918114;29;20090;-81
2022/08/02 02:30:30;;;;;;;1999.90;999.90;;;14.00;99.90;;;;;;4918589;29;20493;-81
2022/08/02 02:33:00;;;;;;;1999.90;999.90;;;13.70;99.90;;;;;;4901452;29;20055;-81
2022/08/02 02:35:29;;;;;;;1999.90;999.90;;;13.80;99.90;;;;;;4901671;29;20058;-82
2022/08/02 02:37:57;;;;;;;1999.90;999.90;;;13.80;99.90;;;;;;4917662;29;20048;-81
2022/08/02 02:40:24;;;;;;;1999.90;999.90;;;13.80;99.90;;;;;;4918394;29;20528;-81
2022/08/02 02:42:51;;;;;;;1999.90;999.90;;;13.80;99.90;;;;;;4917903;29;20044;-82
2022/08/02 02:45:19;;;;;;;1999.90;999.90;;;13.80;99.90;;;;;;4901662;29;20104;-81
2022/08/02 02:47:46;;;;;;;1999.90;999.90;;;13.80;99.90;;;;;;4918125;29;20496;-85
2022/08/02 02:50:11;;;;;;;1999.90;999.90;;;13.90;99.90;;;;;;4918239;29;20414;-81
2022/08/02 02:52:41;;;;;;;1999.90;999.90;;;13.80;99.90;;;;;;4884664;29;20051;-81
2022/08/02 02:55:08;;;;;;;1999.90;999.90;;;13.90;99.90;;;;;;4901143;29;20126;-81
2022/08/02 02:57:36;;;;;;;1999.90;999.90;;;13.90;99.90;;;;;;4917919;29;20051;-81
2022/08/02 03:00:05;;;;;;;1999.90;999.90;;;13.90;28.80;;;;;;4916554;29;20060;-82
2022/08/02 03:02:32;;;;;;;1999.60;999.90;;;13.90;84.30;;;;;;4917928;29;20052;-82
2022/08/02 03:05:01;;;;;;;1144.35;990.80;;;13.90;99.90;;;;;;4917682;29;20116;-81
2022/08/02 03:07:27;;;;;;;1910.85;999.90;;;13.90;4.00;;;;;;4917483;29;20043;-81
2022/08/02 03:09:53;;;;;;;1659.30;999.90;;;13.80;1.00;;;;;;4917492;29;20450;-82
2022/08/02 03:12:19;;;;;;;1696.18;999.90;;;13.80;1.00;;;;;;4900887;29;20055;-81
2022/08/02 03:14:45;;;;;;;1999.90;999.90;;;13.80;5.60;;;;;;4917711;29;20040;-82
2022/08/02 03:17:11;;;;;;;1999.90;999.90;;;13.80;27.00;;;;;;4900632;29;20509;-81
2022/08/02 03:19:36;;;;;;;1966.28;999.90;;;13.80;26.10;;;;;;4900952;29;20482;-81
2022/08/02 03:22:02;;;;;;;1971.35;999.90;;;13.70;1.00;;;;;;4899955;29;20062;-81
2022/08/02 03:24:28;;;;;;;1999.90;999.90;;;13.70;49.80;;;;;;4917849;29;20060;-81
2022/08/02 03:26:53;;;;;;;1999.90;999.90;;;13.70;60.00;;;;;;4900359;29;20469;-81
2022/08/02 03:29:19;;;;;;;1999.90;999.90;;;13.80;99.90;;;;;;4900626;29;20044;-81
2022/08/02 03:31:45;;;;;;;1999.90;999.90;;;13.90;99.90;;;;;;4900579;29;20104;-82
2022/08/02 03:34:11;;;;;;;1999.90;999.90;;;13.80;99.90;;;;;;4900401;29;20047;-82
2022/08/02 03:36:39;;;;;;;1999.90;999.90;;;13.90;99.90;;;;;;4917198;29;20085;-81
2022/08/02 03:39:06;;;;;;;1999.90;999.90;;;13.90;99.90;;;;;;4916683;29;20062;-83
2022/08/02 03:41:34;;;;;;;1959.10;999.90;;;13.80;51.30;;;;;;4917381;29;20056;-82
2022/08/02 03:44:01;;;;;;;1999.90;999.90;;;13.80;20.90;;;;;;4916863;29;20104;-81
2022/08/02 03:46:27;;;;;;;1999.90;999.90;;;13.90;94.50;;;;;;4917280;29;20044;-81
2022/08/02 03:48:54;;;;;;;1999.90;999.90;;;14.00;99.90;;;;;;4916509;29;20048;-81
2022/08/02 03:51:20;;;;;;;1999.90;999.90;;;13.90;99.90;;;;;;4917101;29;20486;-81
2022/08/02 03:53:47;;;;;;;1999.90;999.90;;;13.90;99.90;;;;;;4899959;29;20142;-81
2022/08/02 03:56:17;;;;;;;1999.90;999.90;;;13.90;99.90;;;;;;4916694;29;20502;-81
2022/08/02 03:58:43;;;;;;;1999.90;999.90;;;13.90;99.90;;;;;;4900096;29;20067;-81
2022/08/02 04:01:08;;;;;;;1999.90;999.90;;;14.00;99.90;;;;;;4883999;29;20052;-82
2022/08/02 04:03:34;;;;;;;1999.90;999.90;;;14.00;99.90;;;;;;4899956;29;20116;-81
2022/08/02 04:06:00;;;;;;;1999.90;999.90;;;14.00;9.80;;;;;;4899907;29;20059;-82
2022/08/02 04:08:25;;;;;;;1999.90;999.90;;;14.10;68.80;;;;;;4916601;29;20051;-81
2022/08/02 04:13:37;;;;;;;1997.97;999.90;;;14.00;99.90;;;;;;4902601;29;20152;-82
2022/08/02 04:16:11;;;;;;;1999.90;999.90;;;14.00;99.90;;;;;;4916780;29;20123;-82
2022/08/02 04:18:42;;;;;;;1999.90;999.90;;;14.00;99.90;;;;;;4900331;29;20048;-82
2022/08/02 04:21:10;;;;;;;1999.90;999.90;;;14.00;78.90;;;;;;4916950;29;20413;-81
2022/08/02 04:23:37;;;;;;;1999.90;999.90;;;13.40;99.90;;;;;;4900155;29;20112;-81
2022/08/02 04:26:04;;;;;;;1999.90;999.90;;;14.20;99.90;;;;;;4918163;29;20052;-81
2022/08/02 04:28:31;;;;;;;1999.90;999.90;;;14.20;80.70;;;;;;4902310;29;20094;-82
2022/08/02 04:30:58;;;;;;;1999.90;999.90;;;14.20;61.00;;;;;;4918586;29;20577;-81
2022/08/02 04:33:24;;;;;;;1999.90;999.90;;;14.20;1.00;;;;;;4917770;29;20091;-81
2022/08/02 04:35:50;;;;;;;1979.38;999.90;;;14.20;6.20;;;;;;4917410;29;20060;-81
2022/08/02 04:38:16;;;;;;;1690.35;999.90;;;14.30;4.50;;;;;;4915681;29;20056;-82
2022/08/02 04:40:53;;;;;;;1932.78;999.90;;;14.30;99.90;;;;;;4900270;29;20052;-81
2022/08/02 04:43:20;;;;;;;1999.90;999.90;;;14.30;94.00;;;;;;4916306;29;20048;-81
2022/08/02 04:45:54;;;;;;;1999.90;999.90;;;14.30;49.10;;;;;;4900082;29;20056;-81
2022/08/02 04:48:21;;;;;;;1999.90;999.90;;;14.30;99.90;;;;;;4916280;29;20059;-81
2022/08/02 04:50:47;;;;;;;1999.90;999.90;;;14.30;99.90;;;;;;4916634;29;20044;-82
2022/08/02 04:53:13;;;;;;;1999.90;999.90;;;14.40;99.90;;;;;;4898906;29;20055;-81
2022/08/02 04:55:38;;;;;;;1999.90;999.90;;;14.40;88.40;;;;;;4916374;29;20446;-81
2022/08/02 04:58:04;;;;;;;1999.90;999.90;;;14.40;63.60;;;;;;4916066;29;20048;-81
2022/08/02 05:00:31;;;;;;;1999.90;999.90;;;14.40;11.00;;;;;;4899675;29;20060;-81
2022/08/02 05:02:58;;;;;;;1999.90;999.90;;;14.80;77.00;;;;;;4916297;29;20104;-81
2022/08/02 05:05:24;;;;;;;1999.90;999.90;;;14.50;77.20;;;;;;4899714;29;20049;-81
2022/08/02 05:07:50;;;;;;;1999.90;999.90;;;14.50;1.00;;;;;;4899045;29;20104;-81
2022/08/02 05:10:15;;;;;;;1999.90;999.90;;;14.60;1.00;;;;;;4899190;29;20052;-81
2022/08/02 05:12:41;;;;;;;1999.90;999.90;;;14.60;1.00;;;;;;4916096;29;20438;-81
2022/08/02 05:15:08;;;;;;;1999.90;999.90;;;14.60;1.00;;;;;;4900215;29;20104;-82
2022/08/02 05:17:34;;;;;;;1999.90;999.90;;;14.70;1.00;;;;;;4887287;29;20052;-81
2022/08/02 05:19:59;;;;;;;1999.90;999.90;;;14.80;13.00;;;;;;4918794;29;20059;-81
2022/08/02 05:22:25;;;;;;;1999.90;999.90;;;14.80;99.90;;;;;;4902641;29;20092;-82
2022/08/02 05:24:51;;;;;;;1999.90;999.90;;;14.80;88.80;;;;;;4919957;29;20052;-82
2022/08/02 05:27:17;;;;;;;1999.90;999.90;;;14.90;1.00;;;;;;4902632;29;20059;-82
2022/08/02 05:29:42;;;;;;;1999.90;999.90;;;14.90;1.00;;;;;;4919632;29;20414;-81
2022/08/02 05:32:08;;;;;;;1928.35;999.90;;;15.00;1.00;;;;;;4918328;29;20485;-81
2022/08/02 05:34:34;;;;;;;1999.90;999.90;;;15.00;1.00;;;;;;4919765;29;20048;-81
2022/08/02 05:36:59;;;;;;;1815.80;999.90;;;15.20;1.00;;;;;;4919096;29;20056;-81
2022/08/02 05:39:25;;;;;;;1516.38;999.90;;;15.20;99.90;;;;;;4919642;29;20082;-81
2022/08/02 05:41:51;;;;;;;1626.30;999.55;;;15.20;99.90;;;;;;4920184;29;20059;-81
2022/08/02 05:44:16;;;;;;;1191.03;969.00;;;15.30;99.90;;;;;;4921361;29;20102;-81
2022/08/02 05:46:42;;;;;;;1684.07;998.13;;;15.30;99.90;;;;;;4921417;29;20044;-82
2022/08/02 05:49:08;;;;;;;1999.90;999.90;;;15.40;99.90;;;;;;4904648;29;20055;-81
2022/08/02 05:51:39;;;;;;;1914.05;999.90;;;15.40;99.90;;;;;;4903924;29;20048;-82
2022/08/02 05:54:30;;;;;;;1999.90;999.90;;;15.50;99.90;;;;;;4919201;29;20052;-83
2022/08/02 05:57:07;;;;;;;1999.90;999.90;;;15.60;99.90;;;;;;4919442;29;20040;-81
2022/08/02 05:59:51;;;;;;;1536.77;998.60;;;15.60;99.90;;;;;;4919362;29;20091;-82
2022/08/02 06:02:28;;;;;;;1124.18;954.40;;;15.80;99.90;;;;;;4902174;29;20151;-82
2022/08/02 06:05:15;;;;;;;1320.72;993.55;;;15.90;99.90;;;;;;4886870;29;20371;-82
2022/08/02 06:07:44;;;;;;;1992.90;999.90;;;16.00;99.90;;;;;;4918678;29;20063;-82
2022/08/02 06:10:12;;;;;;;1087.45;924.92;;;16.00;99.90;;;;;;4918478;29;20052;-82
2022/08/02 06:12:53;;;;;;;1413.13;999.90;;;16.20;99.90;;;;;;4918952;29;20135;-82
2022/08/02 06:15:19;;;;;;;1381.32;999.90;;;16.30;99.90;;;;;;4918641;29;20059;-81
2022/08/02 06:17:45;;;;;;;1955.70;999.90;;;16.40;99.90;;;;;;4902132;29;20052;-81
2022/08/02 06:20:12;;;;;;;1332.85;999.90;;;16.50;99.90;;;;;;4918489;29;20048;-82
2022/08/02 06:22:41;;;;;;;1564.88;999.90;;;16.60;91.70;;;;;;4918352;29;20127;-82
2022/08/02 06:25:08;;;;;;;1192.55;990.70;;;16.60;62.20;;;;;;4918540;29;20086;-82
2022/08/02 06:27:34;;;;;;;1256.50;999.90;;;16.80;28.50;;;;;;4917543;29;20048;-82
2022/08/02 06:30:02;;;;;;;1202.45;985.15;;;16.80;36.50;;;;;;4918606;29;20048;-81
2022/08/02 06:32:27;;;;;;;;;;;17.00;33.30;;;;;;4901630;29;20541;-82
2022/08/02 06:34:53;;;;;;;1123.45;989.15;;;17.10;51.20;;;;;;4901854;29;19922;-82
2022/08/02 06:37:49;;;;;;;1294.93;999.90;;;17.20;10.70;;;;;;4900547;29;20087;-82
2022/08/02 06:40:25;;;;;;;1239.95;999.90;;;17.40;35.20;;;;;;4918210;29;20048;-82
2022/08/02 06:43:08;;;;;;;1258.00;999.90;;;17.50;1.00;;;;;;4901656;29;20478;-81
2022/08/02 06:45:34;;;;;;;1260.05;999.90;;;17.70;1.00;;;;;;4918117;29;20051;-82
2022/08/02 06:48:01;;;;;;;1029.43;921.70;;;17.90;1.00;;;;;;4901521;29;20435;-82
2022/08/02 06:50:26;;;;;;;1103.97;981.30;;;18.00;1.00;;;;;;4917932;29;20083;-81
2022/08/02 06:52:52;;;;;;;1115.07;992.60;;;18.10;1.00;;;;;;4917740;29;20092;-81
2022/08/02 06:55:18;;;;;;;1059.25;951.05;;;18.20;1.00;;;;;;4917895;29;20135;-82
2022/08/02 06:57:44;;;;;;;989.75;898.00;;;18.30;1.00;;;;;;4901340;29;20474;-82
2022/08/02 07:00:11;;;;;;;1017.08;919.55;;;18.30;1.00;;;;;;4901103;29;20100;-82
2022/08/02 07:02:38;;;;;;;996.63;904.30;;;18.40;1.00;;;;;;4900937;29;20052;-82
2022/08/02 07:05:05;;;;;;;943.33;862.22;;;18.50;99.90;;;;;;4901313;29;20056;-81
2022/08/02 07:07:31;;;;;;;1045.80;939.38;;;18.60;99.90;;;;;;4900668;29;20112;-82
2022/08/02 07:09:57;;;;;;;1026.28;925.40;;;18.80;1.00;;;;;;4917907;29;20059;-82
2022/08/02 07:12:23;;;;;;;808.10;746.15;;;19.70;1.00;;;;;;4917438;29;20401;-82
2022/08/02 07:14:49;;;;;;;725.58;672.45;;;20.90;99.90;;;;;;4917642;29;20131;-82
2022/08/02 07:17:15;;;;;;;771.47;716.10;;;22.20;99.90;;;;;;4900571;29;20079;-86
2022/08/02 07:19:41;;;;;;;1003.72;921.28;;;23.30;99.90;;;;;;4917707;29;20478;-82
2022/08/02 07:22:06;;;;;;;926.95;852.65;;;23.70;99.90;;;;;;4900672;29;20175;-83
2022/08/02 07:24:32;;;;;;;1066.15;970.03;;;23.80;95.50;;;;;;4916134;29;20116;-81
2022/08/02 07:26:58;;;;;;;1098.20;996.17;;;23.90;94.40;;;;;;4917442;29;20108;-81
2022/08/02 07:29:24;;;;;;;992.92;905.78;;;24.00;99.90;;;;;;4917141;29;20509;-81
2022/08/02 07:31:50;;;;;;;908.08;837.05;;;23.40;86.60;;;;;;4917409;29;20044;-80
2022/08/02 07:34:16;;;;;;;947.55;873.38;;;23.30;88.80;;;;;;4917499;29;20466;-81
2022/08/02 07:36:42;;;;;;;1045.25;949.63;;;23.80;86.90;;;;;;4916583;29;20060;-82
2022/08/02 07:39:08;;;;;;;1215.80;907.67;;;24.50;89.10;;;;;;4899860;29;20148;-81
2022/08/02 07:41:33;;;;;;;1999.90;999.90;;;25.40;46.10;;;;;;4917066;29;20063;-82
2022/08/02 07:43:59;;;;;;;1999.90;999.90;;;26.30;34.70;;;;;;4917217;29;20485;-82
2022/08/02 07:46:25;;;;;;;1999.90;999.90;;;27.10;16.10;;;;;;4915858;29;20406;-82
2022/08/02 07:48:53;;;;;;;1999.90;999.90;;;26.90;6.00;;;;;;4900357;29;20104;-82
2022/08/02 07:51:20;;;;;;;1999.90;999.90;;;27.30;1.00;;;;;;4917002;29;20051;-85
2022/08/02 07:53:46;;;;;;;1999.90;999.90;;;27.70;1.00;;;;;;4916809;29;20051;-82
2022/08/02 07:56:12;;;;;;;1999.90;999.90;;;27.80;1.00;;;;;;4900217;29;20044;-82
2022/08/02 07:58:39;;;;;;;1999.90;999.90;;;28.10;1.00;;;;;;4899750;29;20048;-82
2022/08/02 08:01:05;;;;;;;1999.90;999.90;;;28.20;1.00;;;;;;4900176;29;20383;-83
2022/08/02 08:03:31;;;;;;;1999.90;999.90;;;27.40;1.00;;;;;;4916609;29;20050;-81
2022/08/02 08:05:56;;;;;;;1999.90;999.90;;;27.70;1.00;;;;;;4900146;29;20059;-83
2022/08/02 08:08:22;;;;;;;1999.90;999.90;;;28.20;1.00;;;;;;4916184;29;20044;-82
2022/08/02 08:10:48;;;;;;;1999.90;999.90;;;28.40;1.00;;;;;;4900222;29;20409;-81
2022/08/02 08:13:14;;;;;;;1999.90;999.90;;;28.90;1.00;;;;;;4916432;29;20080;-82
2022/08/02 08:15:40;;;;;;;1999.90;999.90;;;28.50;1.00;;;;;;4915098;29;20056;-81
2022/08/02 08:18:06;;;;;;;1999.90;999.90;;;28.00;1.00;;;;;;4916716;29;20055;-81
2022/08/02 08:20:32;;;;;;;1999.90;999.90;;;27.10;1.00;;;;;;4899345;29;20414;-82
2022/08/02 08:22:58;;;;;;;1999.90;999.90;;;27.60;1.00;;;;;;4899491;29;20052;-81
2022/08/02 08:25:24;;;;;;;1999.90;999.90;;;27.90;1.00;;;;;;4915608;29;20056;-84
2022/08/02 08:27:51;;;;;;;1999.90;999.90;;;27.70;1.00;;;;;;4916849;29;20044;-81
2022/08/02 08:30:18;;;;;;;1676.82;911.13;;;27.80;1.00;;;;;;4916715;29;20052;-81
2022/08/02 08:32:45;;;;;;;1999.90;999.90;;;27.70;1.00;;;;;;4916325;29;20052;-81
2022/08/02 08:35:11;;;;;;;1319.03;786.67;;;28.20;1.00;;;;;;4916649;29;20048;-81
2022/08/02 08:37:38;;;;;;;1999.90;999.90;;;28.00;1.00;;;;;;4883320;29;20056;-82
2022/08/02 08:40:10;;;;;;;1999.90;999.90;;;28.50;1.00;;;;;;4916609;29;20139;-81
2022/08/02 08:42:37;;;;;;;1999.90;999.90;;;28.40;1.00;;;;;;4916164;29;20048;-82
2022/08/02 08:45:05;;;;;;;1999.90;999.90;;;28.50;1.00;;;;;;4884295;29;20059;-82
2022/08/02 08:47:41;;;;;;;1999.90;999.90;;;29.00;1.00;;;;;;4916024;29;20084;-82
2022/08/02 08:50:10;;;;;;;1195.75;663.10;;;29.80;1.00;;;;;;4901149;29;20063;-82
2022/08/02 08:52:41;;;;;;;1999.90;999.90;;;30.60;1.00;;;;;;4919591;29;20370;-82
2022/08/02 08:55:10;;;;;;;672.30;607.63;;;30.80;1.00;;;;;;4887769;29;20048;-81
2022/08/02 08:57:41;;;;;;;563.97;519.08;;;30.60;1.00;;;;;;4919446;29;20520;-82
2022/08/02 09:00:12;;;;;;;471.80;424.30;;;29.90;1.00;;;;;;4920291;29;20063;-82
2022/08/02 09:02:41;;;;;;;713.92;643.38;;;30.80;1.00;;;;;;4919866;29;20047;-81
2022/08/02 09:05:10;;;;;;;1999.90;999.90;;;30.70;1.00;;;;;;4903413;29;20398;-82
2022/08/02 09:07:36;;;;;;;900.47;820.55;;;31.10;1.00;;;;;;4919319;29;20052;-81
2022/08/02 09:10:40;;;;;;;830.05;752.17;;;31.60;1.00;;;;;;4920390;29;20048;-82
2022/08/02 09:13:16;;;;;;;1999.90;999.90;;;31.70;1.00;;;;;;4919969;29;20058;-82
2022/08/02 09:15:44;;;;;;;649.47;596.50;;;32.30;1.00;;;;;;4919542;29;20127;-83
2022/08/02 09:18:11;;;;;;;549.63;507.80;;;31.90;1.00;;;;;;4887396;29;20135;-82
2022/08/02 09:20:58;;;;;;;573.10;531.40;;;30.70;1.00;;;;;;4871925;29;20052;-82
2022/08/02 09:23:25;;;;;;;967.47;683.55;;;31.10;1.00;;;;;;4919479;29;20485;-84
2022/08/02 09:25:55;;;;;;;;;;;31.10;1.00;;;;;;4903154;29;20501;-81
2022/08/02 09:28:26;;;;;;;1999.90;999.90;;;30.60;1.00;;;;;;4919716;29;19930;-81
2022/08/02 09:30:55;;;;;;;682.53;609.97;;;30.90;1.00;;;;;;4919428;29;20048;-81
2022/08/02 09:33:27;;;;;;;775.45;707.83;;;30.40;1.00;;;;;;4919512;29;20401;-82
2022/08/02 09:36:00;;;;;;;662.95;597.08;;;30.60;1.00;;;;;;4919002;29;20366;-82
2022/08/02 09:38:26;;;;;;;749.72;690.38;;;31.10;1.00;;;;;;4917751;29;20493;-82
2022/08/02 09:40:52;;;;;;;769.88;701.70;;;30.90;1.00;;;;;;4918952;29;20684;-81
2022/08/02 09:43:19;;;;;;;833.90;755.75;;;30.60;1.00;;;;;;4919054;29;20056;-82
2022/08/02 09:45:45;;;;;;;1698.13;931.22;;;30.00;1.00;;;;;;4919186;29;20102;-82
2022/08/02 09:48:11;;;;;;;1633.78;861.67;;;30.30;1.00;;;;;;4902592;29;20051;-81
2022/08/02 09:50:39;;;;;;;1999.90;999.90;;;30.20;1.00;;;;;;4902453;29;20134;-81
2022/08/02 09:53:09;;;;;;;;;;;29.90;1.00;;;;;;4919326;29;20044;-82
2022/08/02 09:55:35;;;;;;;1999.90;999.90;;;29.80;1.00;;;;;;4918992;29;19923;-82
2022/08/02 09:58:20;;;;;;;1999.90;999.90;;;30.50;1.00;;;;;;4919104;29;20056;-82
2022/08/02 10:00:57;;;;;;;1625.40;850.65;;;30.90;1.00;;;;;;4918859;29;20048;-82
2022/08/02 10:03:23;;;;;;;1999.90;999.90;;;31.40;1.00;;;;;;4902467;29;20087;-81
2022/08/02 10:05:50;;;;;;;1999.90;999.90;;;31.80;1.00;;;;;;4902003;29;20312;-81
2022/08/02 10:08:16;;;;;;;1250.28;701.05;;;31.90;1.00;;;;;;4918724;29;20059;-82
2022/08/02 10:10:43;;;;;;;1999.90;999.90;;;31.70;1.00;;;;;;4918748;29;20079;-82
2022/08/02 10:13:10;;;;;;;1999.90;999.90;;;32.10;1.00;;;;;;4918893;29;20059;-81
2022/08/02 10:15:37;;;;;;;1999.90;999.90;;;32.00;1.00;;;;;;4918848;29;20044;-81
2022/08/02 10:18:04;;;;;;;1999.90;999.90;;;31.80;1.00;;;;;;4918810;29;20091;-81
2022/08/02 10:20:35;;;;;;;1999.90;999.90;;;31.90;1.00;;;;;;4918935;29;20063;-81
2022/08/02 10:23:02;;;;;;;1999.90;999.90;;;31.50;1.00;;;;;;4918218;29;20051;-81
2022/08/02 10:25:29;;;;;;;1999.90;999.90;;;31.30;1.00;;;;;;4901988;29;20192;-81
2022/08/02 10:27:56;;;;;;;1999.90;999.90;;;31.00;1.00;;;;;;4901668;29;20051;-82
2022/08/02 10:30:24;;;;;;;1999.90;999.90;;;31.60;1.00;;;;;;4918811;29;20048;-81
2022/08/02 10:32:52;;;;;;;1999.90;999.90;;;31.50;1.00;;;;;;4917153;29;20131;-82
2022/08/02 10:35:21;;;;;;;1999.90;999.90;;;30.90;1.00;;;;;;4918663;29;20055;-82
2022/08/02 10:37:52;;;;;;;1093.82;564.42;;;31.10;1.00;;;;;;4900973;29;20135;-82
2022/08/02 10:40:25;;;;;;;1999.90;999.90;;;30.80;1.00;;;;;;4918813;29;20076;-81
2022/08/02 10:42:52;;;;;;;1999.90;999.90;;;31.20;1.00;;;;;;4918663;29;20048;-82
2022/08/02 10:45:20;;;;;;;1999.90;999.90;;;31.90;1.00;;;;;;4919280;29;20044;-82
2022/08/02 10:48:13;;;;;;;1999.90;999.90;;;32.30;1.00;;;;;;4905389;29;20131;-82
2022/08/02 10:50:45;;;;;;;1999.90;999.90;;;32.90;1.00;;;;;;4923428;29;20501;-82
2022/08/02 10:53:24;;;;;;;1999.90;999.90;;;32.10;1.00;;;;;;4906668;29;20063;-81
2022/08/02 10:55:51;;;;;;;1515.10;758.22;;;31.00;1.00;;;;;;4925261;29;20040;-81
2022/08/02 10:58:20;;;;;;;1999.90;999.90;;;30.40;1.00;;;;;;4926189;29;20138;-83
2022/08/02 11:00:46;;;;;;;1999.90;999.90;;;30.30;1.00;;;;;;4910281;29;20135;-82
2022/08/02 11:03:27;;;;;;;1999.90;999.90;;;30.40;1.00;;;;;;4927409;29;20052;-81
2022/08/02 11:06:04;;;;;;;1999.90;999.90;;;31.10;1.00;;;;;;4925643;29;20040;-82
2022/08/02 11:08:30;;;;;;;1999.90;999.90;;;31.80;1.00;;;;;;4923462;29;20048;-79
2022/08/02 11:11:08;;;;;;;1999.90;999.90;;;30.70;1.00;;;;;;4904947;29;20288;-80
2022/08/02 11:13:59;;;;;;;1999.90;999.90;;;30.10;1.00;;;;;;4903134;29;20048;-81
2022/08/02 11:16:56;;;;;;;1999.90;999.90;;;30.80;1.00;;;;;;4911487;29;20052;-82
2022/08/02 11:19:26;;;;;;;1999.90;999.90;;;30.10;1.00;;;;;;4919698;29;20052;-81
2022/08/02 11:22:06;;;;;;;1999.90;999.90;;;29.60;1.00;;;;;;4901191;29;20501;-81
2022/08/02 11:24:36;;;;;;;1999.90;999.90;;;29.00;1.00;;;;;;4919840;29;20052;-81
2022/08/02 11:27:04;;;;;;;1999.90;999.90;;;28.80;1.00;;;;;;4919616;29;20055;-81
2022/08/02 11:29:32;;;;;;;1999.90;999.90;;;29.40;1.00;;;;;;4918484;29;20052;-81
2022/08/02 11:31:58;;;;;;;1999.90;999.90;;;29.90;1.00;;;;;;4916481;29;20122;-82
2022/08/02 11:34:25;;;;;;;1999.90;999.90;;;30.00;1.00;;;;;;4917878;29;20131;-81
2022/08/02 11:36:51;;;;;;;1999.90;999.90;;;30.10;1.00;;;;;;4916770;29;20468;-83
2022/08/02 11:39:22;;;;;;;1999.90;999.90;;;29.80;1.00;;;;;;4917701;29;20143;-82
2022/08/02 11:41:58;;;;;;;1999.90;999.90;;;30.10;1.00;;;;;;4917109;29;20094;-82
2022/08/02 11:44:26;;;;;;;1999.90;999.90;;;29.70;1.00;;;;;;4900541;29;20052;-82
2022/08/02 11:47:01;;;;;;;1999.90;999.90;;;29.40;1.00;;;;;;4916950;29;20044;-82
2022/08/02 11:49:28;;;;;;;1999.90;999.90;;;28.90;1.00;;;;;;4916119;29;20459;-81
2022/08/02 11:52:03;;;;;;;1999.90;999.90;;;28.40;1.00;;;;;;4916556;29;20052;-81
2022/08/02 11:54:32;;;;;;;1999.90;999.90;;;28.30;1.00;;;;;;4884813;29;20104;-81
2022/08/02 11:57:20;;;;;;;1999.90;999.90;;;28.70;1.00;;;;;;4916715;29;20112;-81
2022/08/02 11:59:49;;;;;;;1999.90;999.90;;;29.20;1.00;;;;;;4917181;29;20083;-81
2022/08/02 12:02:15;;;;;;;1999.90;999.90;;;29.90;1.00;;;;;;4916032;29;20056;-81
2022/08/02 12:04:41;;;;;;;1999.90;999.90;;;30.40;1.00;;;;;;4916932;29;20449;-81
2022/08/02 12:07:08;;;;;;;1999.90;999.90;;;30.70;1.00;;;;;;4916318;29;20095;-80
2022/08/02 12:09:35;;;;;;;1999.90;999.90;;;30.60;1.00;;;;;;4916999;29;20079;-82
2022/08/02 12:12:01;;;;;;;;;;;30.30;1.00;;;;;;4900274;29;20100;-80
2022/08/02 12:14:30;;;;;;;1999.90;999.90;;;29.90;1.00;;;;;;4884637;29;20047;-81
2022/08/02 12:19:46;;;;;;;1999.90;999.90;;;29.70;1.00;;;;;;4900069;29;20052;-82